Time,TemperatureF,DewpointF,PressureIn,WindDirection,WindDirectionDegrees,WindSpeedMPH,WindSpeedGustMPH,Humidity,HourlyPrecipIn,Conditions,Clouds,dailyrainin,SoftwareType,DateUTC
2013-08-21 00:01:00,61.9,49.2,29.99,West,271,7.0,7.0,63,0.00,OVC,,0.00,WeatherDisplay:10.37,2013-08-21 07:01:00,
2013-08-21 00:06:00,61.8,48.6,29.99,WNW,298,5.8,5.8,62,0.00,OVC,,0.00,WeatherDisplay:10.37,2013-08-21 07:06:00,
2013-08-21 00:11:00,61.7,48.5,29.98,WNW,292,10.4,10.4,62,0.00,OVC,,0.00,WeatherDisplay:10.37,2013-08-21 07:11:00,
2013-08-21 00:16:00,61.7,48.5,29.98,West,269,6.9,6.9,62,0.00,OVC,,0.00,WeatherDisplay:10.37,2013-08-21 07:16:00,
2013-08-21 00:21:00,61.6,48.4,29.98,WNW,292,6.9,6.9,62,0.00,OVC,,0.00,WeatherDisplay:10.37,2013-08-21 07:21:00,
2013-08-21 00:26:00,61.5,48.4,29.98,WNW,286,4.6,4.6,62,0.00,OVC,,0.00,WeatherDisplay:10.37,2013-08-21 07:26:00,
2013-08-21 00:31:00,61.4,48.3,29.99,WNW,296,10.4,10.4,62,0.00,OVC,,0.00,WeatherDisplay:10.37,2013-08-21 07:31:00,
2013-08-21 00:36:00,61.2,48.1,29.99,West,279,5.8,5.8,62,0.00,OVC,,0.00,WeatherDisplay:10.37,2013-08-21 07:36:00,
2013-08-21 00:41:00,61.0,48.3,29.99,WNW,294,3.5,3.5,63,0.00,OVC,,0.00,WeatherDisplay:10.37,2013-08-21 07:41:00,
2013-08-21 00:46:00,60.7,48.0,29.99,West,277,3.5,3.5,63,0.00,OVC,,0.00,WeatherDisplay:10.37,2013-08-21 07:46:00,
2013-08-21 00:51:00,60.6,47.9,29.99,WNW,283,6.9,6.9,63,0.00,OVC,,0.00,WeatherDisplay:10.37,2013-08-21 07:51:00,
2013-08-21 00:56:00,60.5,47.8,29.99,WNW,288,5.8,5.8,63,0.00,OVC,,0.00,WeatherDisplay:10.37,2013-08-21 07:56:00,
2013-08-21 01:01:00,60.4,47.7,29.99,WNW,283,4.6,4.6,63,0.00,OVC,,0.00,WeatherDisplay:10.37,2013-08-21 08:01:00,
2013-08-21 01:06:00,60.3,48.1,29.99,West,267,9.2,9.2,64,0.00,OVC,,0.00,WeatherDisplay:10.37,2013-08-21 08:06:00,
2013-08-21 01:11:00,60.3,48.1,29.98,WNW,282,5.8,5.8,64,0.00,OVC,,0.00,WeatherDisplay:10.37,2013-08-21 08:11:00,
2013-08-21 01:16:00,60.2,48.0,29.98,WNW,286,11.5,11.5,64,0.00,OVC,,0.00,WeatherDisplay:10.37,2013-08-21 08:16:00,
2013-08-21 01:21:00,60.3,48.1,29.98,WNW,298,11.5,11.5,64,0.00,OVC,,0.00,WeatherDisplay:10.37,2013-08-21 08:21:00,
2013-08-21 01:26:00,60.2,48.0,29.99,WNW,288,4.6,4.6,64,0.00,OVC,,0.00,WeatherDisplay:10.37,2013-08-21 08:26:00,
2013-08-21 01:31:00,60.1,47.9,29.99,WNW,294,11.5,11.5,64,0.00,OVC,,0.00,WeatherDisplay:10.37,2013-08-21 08:31:00,
2013-08-21 01:36:00,60.1,47.9,29.99,West,280,10.4,10.4,64,0.00,OVC,,0.00,WeatherDisplay:10.37,2013-08-21 08:36:00,
2013-08-21 01:41:00,59.9,48.1,29.99,West,275,6.9,6.9,65,0.00,OVC,,0.00,WeatherDisplay:10.37,2013-08-21 08:41:00,
2013-08-21 01:46:00,59.7,47.9,29.99,WNW,295,5.8,5.8,65,0.00,OVC,,0.00,WeatherDisplay:10.37,2013-08-21 08:46:00,
2013-08-21 01:51:00,59.5,48.1,29.99,West,275,11.5,11.5,66,0.00,OVC,,0.00,WeatherDisplay:10.37,2013-08-21 08:51:00,
2013-08-21 01:56:00,59.1,47.7,29.98,NW,313,9.2,9.2,66,0.00,OVC,,0.00,WeatherDisplay:10.37,2013-08-21 08:56:00,
2013-08-21 02:01:00,59.0,48.1,29.98,West,276,7.0,7.5,67,0.00,OVC,,0.00,WeatherDisplay:10.37,2013-08-21 09:01:00,
2013-08-21 02:06:00,59.0,48.1,29.97,West,281,9.2,9.2,67,0.00,OVC,,0.00,WeatherDisplay:10.37,2013-08-21 09:06:00,
2013-08-21 02:11:00,59.0,48.1,29.97,NW,307,6.9,6.9,67,0.00,OVC,,0.00,WeatherDisplay:10.37,2013-08-21 09:11:00,
2013-08-21 02:16:00,59.0,48.4,29.97,WNW,296,3.5,3.5,68,0.00,OVC,,0.00,WeatherDisplay:10.37,2013-08-21 09:16:00,
2013-08-21 02:21:00,58.8,48.3,29.97,West,277,3.5,3.5,68,0.00,OVC,,0.00,WeatherDisplay:10.37,2013-08-21 09:21:00,
2013-08-21 02:26:00,58.6,48.1,29.97,WNW,289,3.5,3.5,68,0.00,OVC,,0.00,WeatherDisplay:10.37,2013-08-21 09:26:00,
2013-08-21 02:31:00,58.5,48.4,29.97,WNW,290,3.5,3.5,69,0.00,OVC,,0.00,WeatherDisplay:10.37,2013-08-21 09:31:00,
2013-08-21 02:36:00,58.2,48.1,29.98,WNW,291,3.5,3.5,69,0.00,OVC,,0.00,WeatherDisplay:10.37,2013-08-21 09:36:00,
2013-08-21 02:41:00,58.1,48.0,29.97,West,281,4.0,4.0,69,0.00,OVC,,0.00,WeatherDisplay:10.37,2013-08-21 09:41:00,
2013-08-21 02:46:00,58.1,48.0,29.97,NW,306,5.8,5.8,69,0.00,OVC,,0.00,WeatherDisplay:10.37,2013-08-21 09:46:00,
2013-08-21 02:51:00,58.4,48.3,29.97,WNW,296,6.9,6.9,69,0.00,OVC,,0.00,WeatherDisplay:10.37,2013-08-21 09:51:00,
2013-08-21 02:56:00,58.5,48.4,29.97,WNW,293,6.9,6.9,69,0.00,OVC,,0.00,WeatherDisplay:10.37,2013-08-21 09:56:00,
2013-08-21 03:01:00,58.6,48.5,29.97,West,275,11.5,11.5,69,0.00,OVC,,0.00,WeatherDisplay:10.37,2013-08-21 10:01:00,
2013-08-21 03:06:00,58.6,48.5,29.97,WNW,287,6.9,6.9,69,0.00,OVC,,0.00,WeatherDisplay:10.37,2013-08-21 10:06:00,
2013-08-21 03:11:00,58.6,48.5,29.97,NW,319,6.9,6.9,69,0.00,OVC,,0.00,WeatherDisplay:10.37,2013-08-21 10:11:00,
2013-08-21 03:16:00,58.5,48.4,29.97,WNW,301,3.5,3.5,69,0.00,OVC,,0.00,WeatherDisplay:10.37,2013-08-21 10:16:00,
2013-08-21 03:21:00,58.4,48.3,29.96,WNW,298,10.4,10.4,69,0.00,OVC,,0.00,WeatherDisplay:10.37,2013-08-21 10:21:00,
2013-08-21 03:26:00,58.3,48.6,29.96,WNW,288,5.8,5.8,70,0.00,OVC,,0.00,WeatherDisplay:10.37,2013-08-21 10:26:00,
2013-08-21 03:31:00,58.2,48.5,29.96,WNW,296,5.8,5.8,70,0.00,OVC,,0.00,WeatherDisplay:10.37,2013-08-21 10:31:00,
2013-08-21 03:36:00,58.0,48.6,29.96,West,281,6.9,6.9,71,0.00,OVC,,0.00,WeatherDisplay:10.37,2013-08-21 10:36:00,
2013-08-21 03:41:00,57.9,48.6,29.96,West,277,4.0,4.0,71,0.00,OVC,,0.00,WeatherDisplay:10.37,2013-08-21 10:41:00,
2013-08-21 03:46:00,57.7,48.4,29.96,WNW,298,3.5,3.5,71,0.00,OVC,,0.00,WeatherDisplay:10.37,2013-08-21 10:46:00,
2013-08-21 03:51:00,57.6,48.6,29.96,WNW,292,3.5,3.5,72,0.00,OVC,,0.00,WeatherDisplay:10.37,2013-08-21 10:51:00,
2013-08-21 03:56:00,57.5,48.5,29.96,WNW,298,3.5,3.5,72,0.00,OVC,,0.00,WeatherDisplay:10.37,2013-08-21 10:56:00,
2013-08-21 04:01:00,57.3,48.3,29.96,WNW,300,3.5,3.5,72,0.00,OVC,,0.00,WeatherDisplay:10.37,2013-08-21 11:01:00,
2013-08-21 04:06:00,57.3,48.7,29.96,NW,304,3.5,3.5,73,0.00,OVC,,0.00,WeatherDisplay:10.37,2013-08-21 11:06:00,
2013-08-21 04:11:00,57.4,48.8,29.96,WNW,303,5.8,5.8,73,0.00,OVC,,0.00,WeatherDisplay:10.37,2013-08-21 11:11:00,
2013-08-21 04:16:00,57.5,48.9,29.96,West,269,5.8,5.8,73,0.00,OVC,,0.00,WeatherDisplay:10.37,2013-08-21 11:16:00,
2013-08-21 04:21:00,57.4,48.8,29.96,NW,306,10.4,10.4,73,0.00,OVC,,0.00,WeatherDisplay:10.37,2013-08-21 11:21:00,
2013-08-21 04:26:00,57.4,48.8,29.96,NW,306,5.8,5.8,73,0.00,OVC,,0.00,WeatherDisplay:10.37,2013-08-21 11:26:00,
2013-08-21 04:31:00,57.5,48.9,29.96,WNW,291,11.5,11.5,73,0.00,OVC,,0.00,WeatherDisplay:10.37,2013-08-21 11:31:00,
2013-08-21 04:36:00,57.6,49.0,29.96,WNW,291,9.2,9.2,73,0.00,OVC,,0.00,WeatherDisplay:10.37,2013-08-21 11:36:00,
2013-08-21 04:41:00,57.5,48.9,29.96,WNW,296,3.5,3.5,73,0.00,OVC,,0.00,WeatherDisplay:10.37,2013-08-21 11:41:00,
2013-08-21 04:46:00,57.2,49.0,29.96,NNE,25,3.5,3.5,74,0.00,OVC,,0.00,WeatherDisplay:10.37,2013-08-21 11:46:00,
2013-08-21 04:51:00,56.9,48.7,29.96,NNE,25,0.0,0.0,74,0.00,OVC,,0.00,WeatherDisplay:10.37,2013-08-21 11:51:00,
2013-08-21 04:56:00,56.7,48.9,29.96,NNE,25,0.0,0.3,75,0.00,OVC,,0.00,WeatherDisplay:10.37,2013-08-21 11:56:00,
2013-08-21 05:01:00,56.4,48.6,29.97,NW,311,4.0,4.0,75,0.00,OVC,,0.00,WeatherDisplay:10.37,2013-08-21 12:01:00,
2013-08-21 05:06:00,56.2,48.7,29.96,WNW,296,5.8,5.8,76,0.00,OVC,,0.00,WeatherDisplay:10.37,2013-08-21 12:06:00,
2013-08-21 05:11:00,56.0,48.9,29.96,WNW,290,3.5,3.5,77,0.00,OVC,,0.00,WeatherDisplay:10.37,2013-08-21 12:11:00,
2013-08-21 05:16:00,55.9,48.8,29.96,WNW,303,6.0,6.0,77,0.00,OVC,,0.00,WeatherDisplay:10.37,2013-08-21 12:16:00,
2013-08-21 05:21:00,55.8,49.0,29.96,North,355,1.1,1.1,78,0.00,OVC,,0.00,WeatherDisplay:10.37,2013-08-21 12:21:00,
2013-08-21 05:26:00,55.7,48.9,29.96,North,355,0.0,0.0,78,0.00,OVC,,0.00,WeatherDisplay:10.37,2013-08-21 12:26:00,
2013-08-21 05:31:00,55.6,48.8,29.96,NW,312,3.5,3.5,78,0.00,OVC,,0.00,WeatherDisplay:10.37,2013-08-21 12:31:00,
2013-08-21 05:36:00,55.6,48.8,29.96,WNW,296,0.0,0.0,78,0.00,OVC,,0.00,WeatherDisplay:10.37,2013-08-21 12:36:00,
2013-08-21 05:41:00,55.6,48.8,29.96,WNW,296,1.1,0.0,78,0.00,OVC,,0.00,WeatherDisplay:10.37,2013-08-21 12:41:00,
2013-08-21 05:46:00,55.5,49.1,29.96,WNW,296,2.0,2.0,79,0.00,OVC,,0.00,WeatherDisplay:10.37,2013-08-21 12:46:00,
2013-08-21 05:51:00,55.5,49.1,29.96,WNW,296,2.3,2.3,79,0.00,OVC,,0.00,WeatherDisplay:10.37,2013-08-21 12:51:00,
2013-08-21 05:56:00,55.5,49.1,29.96,WNW,298,4.6,4.6,79,0.00,OVC,,0.00,WeatherDisplay:10.37,2013-08-21 12:56:00,
2013-08-21 06:01:00,55.5,49.1,29.96,NW,322,3.5,3.5,79,0.00,OVC,,0.00,WeatherDisplay:10.37,2013-08-21 13:01:00,
2013-08-21 06:06:00,55.6,49.2,29.96,NW,309,3.5,3.5,79,0.00,OVC,,0.00,WeatherDisplay:10.37,2013-08-21 13:06:00,
2013-08-21 06:11:00,55.6,49.2,29.96,West,281,2.3,2.3,79,0.00,OVC,,0.00,WeatherDisplay:10.37,2013-08-21 13:11:00,
2013-08-21 06:16:00,55.5,49.1,29.96,WNW,292,3.5,3.5,79,0.00,OVC,,0.00,WeatherDisplay:10.37,2013-08-21 13:16:00,
2013-08-21 06:21:00,55.5,49.1,29.96,WNW,284,4.6,4.6,79,0.00,OVC,,0.00,WeatherDisplay:10.37,2013-08-21 13:21:00,
2013-08-21 06:26:00,55.4,49.3,29.97,WNW,282,3.5,3.5,80,0.00,OVC,,0.00,WeatherDisplay:10.37,2013-08-21 13:26:00,
2013-08-21 06:31:00,55.3,49.2,29.97,WNW,288,5.0,5.0,80,0.00,OVC,,0.00,WeatherDisplay:10.37,2013-08-21 13:31:00,
2013-08-21 06:36:00,55.4,49.3,29.97,WNW,287,3.5,0.0,80,0.00,OVC,,0.00,WeatherDisplay:10.37,2013-08-21 13:36:00,
2013-08-21 06:41:00,55.4,49.3,29.97,WNW,284,3.5,3.5,80,0.00,OVC,,0.00,WeatherDisplay:10.37,2013-08-21 13:41:00,
2013-08-21 06:46:00,55.4,49.3,29.98,WNW,284,1.0,1.0,80,0.00,OVC,,0.00,WeatherDisplay:10.37,2013-08-21 13:46:00,
2013-08-21 06:51:00,55.3,49.2,29.98,WNW,284,0.0,0.0,80,0.00,OVC,,0.00,WeatherDisplay:10.37,2013-08-21 13:51:00,
2013-08-21 06:56:00,55.2,49.5,29.98,WNW,297,2.3,2.3,81,0.00,OVC,,0.00,WeatherDisplay:10.37,2013-08-21 13:56:00,
2013-08-21 07:01:00,55.3,49.6,29.98,WNW,297,1.1,1.1,81,0.00,OVC,,0.00,WeatherDisplay:10.37,2013-08-21 14:01:00,
2013-08-21 07:06:00,55.4,49.7,29.98,WNW,290,3.5,3.5,81,0.00,OVC,,0.00,WeatherDisplay:10.37,2013-08-21 14:06:00,
2013-08-21 07:11:00,55.4,49.7,29.98,WNW,290,1.1,1.1,81,0.00,OVC,,0.00,WeatherDisplay:10.37,2013-08-21 14:11:00,
2013-08-21 07:16:00,55.4,49.3,29.98,WNW,303,3.5,3.5,80,0.00,OVC,,0.00,WeatherDisplay:10.37,2013-08-21 14:16:00,
2013-08-21 07:21:00,55.3,49.6,29.98,WNW,303,1.0,1.0,81,0.00,OVC,,0.00,WeatherDisplay:10.37,2013-08-21 14:21:00,
2013-08-21 07:26:00,55.3,49.6,29.98,WNW,303,2.3,2.3,81,0.00,OVC,,0.00,WeatherDisplay:10.37,2013-08-21 14:26:00,
2013-08-21 07:31:00,55.3,49.6,29.98,WNW,303,2.3,2.3,81,0.00,OVC,,0.00,WeatherDisplay:10.37,2013-08-21 14:31:00,
2013-08-21 07:36:00,55.3,49.6,29.98,WNW,303,2.3,2.3,81,0.00,OVC,,0.00,WeatherDisplay:10.37,2013-08-21 14:36:00,
2013-08-21 07:41:00,55.3,49.6,29.98,WNW,303,3.5,3.5,81,0.00,OVC,,0.00,WeatherDisplay:10.37,2013-08-21 14:41:00,
2013-08-21 07:46:00,55.4,49.7,29.98,WNW,303,3.5,3.5,81,0.00,OVC,,0.00,WeatherDisplay:10.37,2013-08-21 14:46:00,
2013-08-21 07:51:00,55.6,49.9,29.98,WNW,303,1.1,1.1,81,0.00,OVC,,0.00,WeatherDisplay:10.37,2013-08-21 14:51:00,
2013-08-21 07:56:00,55.7,50.0,29.98,WNW,303,2.0,2.0,81,0.00,OVC,,0.00,WeatherDisplay:10.37,2013-08-21 14:56:00,
2013-08-21 08:01:00,55.9,50.2,29.98,WNW,303,0.0,0.0,81,0.00,OVC,,0.00,WeatherDisplay:10.37,2013-08-21 15:01:00,
2013-08-21 08:06:00,56.0,49.9,29.98,WNW,303,4.0,4.0,80,0.00,OVC,,0.00,WeatherDisplay:10.37,2013-08-21 15:06:00,
2013-08-21 08:11:00,56.3,50.2,29.98,WNW,302,3.5,3.5,80,0.00,OVC,,0.00,WeatherDisplay:10.37,2013-08-21 15:11:00,
2013-08-21 08:16:00,56.5,50.1,29.98,WNW,299,5.8,5.8,79,0.00,OVC,,0.00,WeatherDisplay:10.37,2013-08-21 15:16:00,
2013-08-21 08:21:00,56.6,50.2,29.98,NW,304,4.6,4.6,79,0.00,OVC,,0.00,WeatherDisplay:10.37,2013-08-21 15:21:00,
2013-08-21 08:26:00,56.8,50.4,29.98,NW,304,3.5,3.5,79,0.00,OVC,,0.00,WeatherDisplay:10.37,2013-08-21 15:26:00,
2013-08-21 08:31:00,57.0,50.5,29.98,NW,304,1.1,1.1,79,0.00,OVC,,0.00,WeatherDisplay:10.37,2013-08-21 15:31:00,
2013-08-21 08:36:00,57.3,50.8,29.98,NW,304,3.5,3.5,79,0.00,OVC,,0.00,WeatherDisplay:10.37,2013-08-21 15:36:00,
2013-08-21 08:41:00,57.6,50.8,29.98,WNW,292,5.8,5.8,78,0.00,OVC,,0.00,WeatherDisplay:10.37,2013-08-21 15:41:00,
2013-08-21 08:46:00,57.9,51.1,29.98,WNW,292,4.6,4.6,78,0.00,OVC,,0.00,WeatherDisplay:10.37,2013-08-21 15:46:00,
2013-08-21 08:51:00,58.2,51.4,29.98,WNW,301,3.5,3.5,78,0.00,OVC,,0.00,WeatherDisplay:10.37,2013-08-21 15:51:00,
2013-08-21 08:56:00,58.5,51.7,29.97,WNW,298,3.5,3.5,78,0.00,OVC,,0.00,WeatherDisplay:10.37,2013-08-21 15:56:00,
2013-08-21 09:01:00,59.0,51.8,29.97,WNW,296,3.5,3.5,77,0.00,OVC,,0.00,WeatherDisplay:10.37,2013-08-21 16:01:00,
2013-08-21 09:06:00,59.6,52.0,29.97,WNW,285,5.8,5.8,76,0.00,OVC,,0.00,WeatherDisplay:10.37,2013-08-21 16:06:00,
2013-08-21 09:11:00,59.9,52.0,29.97,WNW,293,3.5,3.5,75,0.00,OVC,,0.00,WeatherDisplay:10.37,2013-08-21 16:11:00,
2013-08-21 09:16:00,60.1,51.8,29.97,WNW,293,3.5,3.5,74,0.00,OVC,,0.00,WeatherDisplay:10.37,2013-08-21 16:16:00,
2013-08-21 09:21:00,60.3,52.0,29.97,WNW,293,1.1,1.1,74,0.00,OVC,,0.00,WeatherDisplay:10.37,2013-08-21 16:21:00,
2013-08-21 09:26:00,60.5,52.2,29.98,WNW,293,3.5,3.5,74,0.00,OVC,,0.00,WeatherDisplay:10.37,2013-08-21 16:26:00,
2013-08-21 09:31:00,60.9,52.6,29.98,WNW,293,1.1,1.1,74,0.00,OVC,,0.00,WeatherDisplay:10.37,2013-08-21 16:31:00,
2013-08-21 09:36:00,61.4,52.7,29.98,WNW,300,6.0,6.0,73,0.00,OVC,,0.00,WeatherDisplay:10.37,2013-08-21 16:36:00,
2013-08-21 09:41:00,61.9,53.1,29.97,WNW,300,6.0,6.0,73,0.00,OVC,,0.00,WeatherDisplay:10.37,2013-08-21 16:41:00,
2013-08-21 09:46:00,62.3,53.2,29.97,WNW,301,4.6,4.6,72,0.00,OVC,,0.00,WeatherDisplay:10.37,2013-08-21 16:46:00,
2013-08-21 09:51:00,62.8,53.3,29.97,WNW,297,6.0,6.0,71,0.00,OVC,,0.00,WeatherDisplay:10.37,2013-08-21 16:51:00,
2013-08-21 09:56:00,63.2,53.3,29.97,WNW,298,9.2,9.2,70,0.00,OVC,,0.00,WeatherDisplay:10.37,2013-08-21 16:56:00,
2013-08-21 10:01:00,63.5,53.5,29.97,WNW,290,6.9,6.9,70,0.00,OVC,,0.00,WeatherDisplay:10.37,2013-08-21 17:01:00,
2013-08-21 10:06:00,63.9,53.9,29.97,NW,312,5.8,5.8,70,0.00,OVC,,0.00,WeatherDisplay:10.37,2013-08-21 17:06:00,
2013-08-21 10:11:00,64.4,54.0,29.97,WNW,292,5.8,5.8,69,0.00,OVC,,0.00,WeatherDisplay:10.37,2013-08-21 17:11:00,
2013-08-21 10:16:00,64.9,54.1,29.97,NW,309,4.6,4.6,68,0.00,OVC,,0.00,WeatherDisplay:10.37,2013-08-21 17:16:00,
2013-08-21 10:21:00,65.6,54.8,29.97,WNW,301,4.6,4.6,68,0.00,OVC,,0.00,WeatherDisplay:10.37,2013-08-21 17:21:00,
2013-08-21 10:26:00,66.3,54.6,29.97,NW,307,10.4,10.4,66,0.00,OVC,,0.00,WeatherDisplay:10.37,2013-08-21 17:26:00,
2013-08-21 10:31:00,66.9,55.6,29.96,WNW,296,3.5,3.5,67,0.00,OVC,,0.00,WeatherDisplay:10.37,2013-08-21 17:31:00,
2013-08-21 10:36:00,67.5,55.3,29.96,WNW,294,10.4,10.4,65,0.00,OVC,,0.00,WeatherDisplay:10.37,2013-08-21 17:36:00,
2013-08-21 10:41:00,68.1,55.5,29.96,NW,311,10.0,10.0,64,0.00,OVC,,0.00,WeatherDisplay:10.37,2013-08-21 17:41:00,
2013-08-21 10:46:00,68.6,55.5,29.96,NW,306,10.4,10.4,63,0.00,OVC,,0.00,WeatherDisplay:10.37,2013-08-21 17:46:00,
2013-08-21 10:51:00,69.0,55.4,29.96,West,280,8.1,8.1,62,0.00,OVC,,0.00,WeatherDisplay:10.37,2013-08-21 17:51:00,
2013-08-21 10:56:00,69.5,55.9,29.96,WNW,298,10.4,10.4,62,0.00,OVC,,0.00,WeatherDisplay:10.37,2013-08-21 17:56:00,
2013-08-21 11:01:00,70.1,56.0,29.96,NW,305,10.4,10.4,61,0.00,OVC,,0.00,WeatherDisplay:10.37,2013-08-21 18:01:00,
2013-08-21 11:06:00,70.4,55.8,29.96,NNW,346,10.4,10.4,60,0.00,OVC,,0.00,WeatherDisplay:10.37,2013-08-21 18:06:00,
2013-08-21 11:11:00,70.6,56.5,29.96,North,351,8.1,8.1,61,0.00,OVC,,0.00,WeatherDisplay:10.37,2013-08-21 18:11:00,
2013-08-21 11:16:00,71.0,56.4,29.96,West,265,5.0,5.0,60,0.00,OVC,,0.00,WeatherDisplay:10.37,2013-08-21 18:16:00,
2013-08-21 11:21:00,71.4,56.3,29.96,WNW,286,6.9,6.9,59,0.00,OVC,,0.00,WeatherDisplay:10.37,2013-08-21 18:21:00,
2013-08-21 11:26:00,71.8,56.2,29.96,West,274,11.5,11.5,58,0.00,OVC,,0.00,WeatherDisplay:10.37,2013-08-21 18:26:00,
2013-08-21 11:31:00,72.1,56.5,29.96,West,280,9.2,9.2,58,0.00,OVC,,0.00,WeatherDisplay:10.37,2013-08-21 18:31:00,
2013-08-21 11:36:00,72.3,56.7,29.95,NW,304,9.2,9.2,58,0.00,OVC,,0.00,WeatherDisplay:10.37,2013-08-21 18:36:00,
2013-08-21 11:41:00,72.4,56.8,29.95,West,281,10.4,10.4,58,0.00,OVC,,0.00,WeatherDisplay:10.37,2013-08-21 18:41:00,
2013-08-21 11:46:00,72.6,57.0,29.95,WNW,298,6.9,6.9,58,0.00,OVC,,0.00,WeatherDisplay:10.37,2013-08-21 18:46:00,
2013-08-21 11:51:00,72.9,56.8,29.95,WNW,294,9.2,9.2,57,0.00,OVC,,0.00,WeatherDisplay:10.37,2013-08-21 18:51:00,
2013-08-21 11:56:00,73.3,56.2,29.95,WNW,292,10.4,10.4,55,0.00,OVC,,0.00,WeatherDisplay:10.37,2013-08-21 18:56:00,
2013-08-21 12:01:00,73.4,56.7,29.95,NW,306,11.5,11.5,56,0.00,OVC,,0.00,WeatherDisplay:10.37,2013-08-21 19:01:00,
2013-08-21 12:06:00,73.6,56.9,29.95,WNW,299,12.0,12.0,56,0.00,OVC,,0.00,WeatherDisplay:10.37,2013-08-21 19:06:00,
2013-08-21 12:11:00,73.8,56.6,29.95,NW,321,11.5,11.5,55,0.00,OVC,,0.00,WeatherDisplay:10.37,2013-08-21 19:11:00,
2013-08-21 12:16:00,74.2,56.5,29.94,WNW,294,9.2,9.2,54,0.00,OVC,,0.00,WeatherDisplay:10.37,2013-08-21 19:16:00,
2013-08-21 12:21:00,74.7,56.9,29.94,West,281,9.0,9.0,54,0.00,OVC,,0.00,WeatherDisplay:10.37,2013-08-21 19:21:00,
2013-08-21 12:26:00,75.2,57.9,29.94,West,281,9.2,9.2,55,0.00,OVC,,0.00,WeatherDisplay:10.37,2013-08-21 19:26:00,
2013-08-21 12:31:00,75.5,57.7,29.94,WNW,289,13.8,13.8,54,0.00,OVC,,0.00,WeatherDisplay:10.37,2013-08-21 19:31:00,
2013-08-21 12:36:00,75.9,57.5,29.94,NW,311,9.2,9.2,53,0.00,OVC,,0.00,WeatherDisplay:10.37,2013-08-21 19:36:00,
2013-08-21 12:41:00,76.6,58.2,29.94,WNW,286,6.9,6.9,53,0.00,OVC,,0.00,WeatherDisplay:10.37,2013-08-21 19:41:00,
2013-08-21 12:46:00,77.4,58.4,29.94,WNW,282,12.7,12.7,52,0.00,OVC,,0.00,WeatherDisplay:10.37,2013-08-21 19:46:00,
2013-08-21 12:51:00,77.9,58.3,29.93,West,279,9.2,9.2,51,0.00,OVC,,0.00,WeatherDisplay:10.37,2013-08-21 19:51:00,
2013-08-21 12:56:00,78.7,57.4,29.93,WNW,286,9.2,9.2,48,0.00,OVC,,0.00,WeatherDisplay:10.37,2013-08-21 19:56:00,
2013-08-21 13:01:00,78.7,56.8,29.93,WNW,286,11.5,11.5,47,0.00,OVC,,0.00,WeatherDisplay:10.37,2013-08-21 20:01:00,
2013-08-21 13:06:00,78.7,56.2,29.93,WNW,286,6.9,7.2,46,0.00,OVC,,0.00,WeatherDisplay:10.37,2013-08-21 20:06:00,
2013-08-21 13:11:00,78.3,56.4,29.93,West,274,5.8,6.2,47,0.00,OVC,,0.00,WeatherDisplay:10.37,2013-08-21 20:11:00,
2013-08-21 13:16:00,78.4,56.5,29.93,NW,307,8.1,8.1,47,0.00,OVC,,0.00,WeatherDisplay:10.37,2013-08-21 20:16:00,
2013-08-21 13:21:00,78.4,56.5,29.93,WNW,295,9.2,9.2,47,0.00,OVC,,0.00,WeatherDisplay:10.37,2013-08-21 20:21:00,
2013-08-21 13:26:00,78.7,56.8,29.92,West,275,11.5,11.5,47,0.00,OVC,,0.00,WeatherDisplay:10.37,2013-08-21 20:26:00,
2013-08-21 13:31:00,78.9,57.0,29.92,WNW,285,10.4,10.4,47,0.00,OVC,,0.00,WeatherDisplay:10.37,2013-08-21 20:31:00,
2013-08-21 13:36:00,79.0,56.5,29.92,WNW,300,10.4,10.4,46,0.00,OVC,,0.00,WeatherDisplay:10.37,2013-08-21 20:36:00,
2013-08-21 13:41:00,79.1,55.9,29.92,WNW,290,11.5,11.5,45,0.00,OVC,,0.00,WeatherDisplay:10.37,2013-08-21 20:41:00,
2013-08-21 13:46:00,79.0,55.8,29.92,WNW,302,11.5,11.5,45,0.00,OVC,,0.00,WeatherDisplay:10.37,2013-08-21 20:46:00,
2013-08-21 13:51:00,79.2,56.6,29.92,West,281,6.9,6.9,46,0.00,OVC,,0.00,WeatherDisplay:10.37,2013-08-21 20:51:00,
2013-08-21 13:56:00,79.3,56.1,29.92,WNW,290,9.2,9.2,45,0.00,OVC,,0.00,WeatherDisplay:10.37,2013-08-21 20:56:00,
2013-08-21 14:01:00,79.5,55.7,29.92,WNW,290,5.0,5.9,44,0.00,OVC,,0.00,WeatherDisplay:10.37,2013-08-21 21:01:00,
2013-08-21 14:06:00,79.7,56.5,29.92,West,279,9.2,9.2,45,0.00,OVC,,0.00,WeatherDisplay:10.37,2013-08-21 21:06:00,
2013-08-21 14:11:00,80.0,56.1,29.92,NW,306,12.7,12.7,44,0.00,OVC,,0.00,WeatherDisplay:10.37,2013-08-21 21:11:00,
2013-08-21 14:16:00,80.3,57.0,29.91,WNW,299,11.5,11.5,45,0.00,OVC,,0.00,WeatherDisplay:10.37,2013-08-21 21:16:00,
2013-08-21 14:21:00,80.8,56.9,29.91,NW,304,6.9,6.9,44,0.00,OVC,,0.00,WeatherDisplay:10.37,2013-08-21 21:21:00,
2013-08-21 14:26:00,81.2,57.2,29.91,WNW,295,9.0,9.0,44,0.00,OVC,,0.00,WeatherDisplay:10.37,2013-08-21 21:26:00,
2013-08-21 14:31:00,82.0,56.0,29.91,WNW,288,12.7,12.7,41,0.00,OVC,,0.00,WeatherDisplay:10.37,2013-08-21 21:31:00,
2013-08-21 14:36:00,82.5,55.7,29.91,WNW,288,13.8,13.8,40,0.00,OVC,,0.00,WeatherDisplay:10.37,2013-08-21 21:36:00,
2013-08-21 14:41:00,83.0,56.2,29.91,West,281,11.5,11.5,40,0.00,OVC,,0.00,WeatherDisplay:10.37,2013-08-21 21:41:00,
2013-08-21 14:46:00,83.0,56.2,29.90,West,274,9.2,9.2,40,0.00,OVC,,0.00,WeatherDisplay:10.37,2013-08-21 21:46:00,
2013-08-21 14:51:00,83.4,55.8,29.90,NW,308,10.4,10.4,39,0.00,OVC,,0.00,WeatherDisplay:10.37,2013-08-21 21:51:00,
2013-08-21 14:56:00,83.5,56.6,29.90,WNW,292,4.6,4.6,40,0.00,OVC,,0.00,WeatherDisplay:10.37,2013-08-21 21:56:00,
2013-08-21 15:01:00,83.6,56.7,29.90,NW,314,10.4,10.4,40,0.00,OVC,,0.00,WeatherDisplay:10.37,2013-08-21 22:01:00,
2013-08-21 15:06:00,84.0,56.4,29.90,West,275,11.5,11.5,39,0.00,OVC,,0.00,WeatherDisplay:10.37,2013-08-21 22:06:00,
2013-08-21 15:11:00,83.6,56.7,29.90,West,279,11.5,11.5,40,0.00,OVC,,0.00,WeatherDisplay:10.37,2013-08-21 22:11:00,
2013-08-21 15:16:00,83.3,55.8,29.90,WNW,283,15.0,15.0,39,0.00,OVC,,0.00,WeatherDisplay:10.37,2013-08-21 22:16:00,
2013-08-21 15:21:00,83.4,57.2,29.90,West,277,5.8,5.8,41,0.00,OVC,,0.00,WeatherDisplay:10.37,2013-08-21 22:21:00,
2013-08-21 15:26:00,83.6,56.7,29.89,WNW,295,11.5,11.5,40,0.00,OVC,,0.00,WeatherDisplay:10.37,2013-08-21 22:26:00,
2013-08-21 15:31:00,83.5,56.6,29.89,WNW,292,10.4,10.4,40,0.00,OVC,,0.00,WeatherDisplay:10.37,2013-08-21 22:31:00,
2013-08-21 15:36:00,83.5,56.6,29.89,NW,318,8.1,8.1,40,0.00,OVC,,0.00,WeatherDisplay:10.37,2013-08-21 22:36:00,
2013-08-21 15:41:00,83.7,56.8,29.89,WNW,291,6.9,6.9,40,0.00,OVC,,0.00,WeatherDisplay:10.37,2013-08-21 22:41:00,
2013-08-21 15:46:00,84.0,56.4,29.89,West,268,8.1,8.1,39,0.00,OVC,,0.00,WeatherDisplay:10.37,2013-08-21 22:46:00,
2013-08-21 15:51:00,84.1,56.5,29.89,WNW,292,9.0,9.0,39,0.00,OVC,,0.00,WeatherDisplay:10.37,2013-08-21 22:51:00,
2013-08-21 15:56:00,83.8,55.5,29.88,West,281,10.0,10.0,38,0.00,OVC,,0.00,WeatherDisplay:10.37,2013-08-21 22:56:00,
2013-08-21 16:01:00,83.7,55.4,29.88,WNW,291,10.0,10.0,38,0.00,OVC,,0.00,WeatherDisplay:10.37,2013-08-21 23:01:00,
2013-08-21 16:06:00,83.9,55.6,29.88,WNW,294,10.4,10.4,38,0.00,OVC,,0.00,WeatherDisplay:10.37,2013-08-21 23:06:00,
2013-08-21 16:11:00,84.4,56.0,29.88,WNW,289,9.2,9.2,38,0.00,OVC,,0.00,WeatherDisplay:10.37,2013-08-21 23:11:00,
2013-08-21 16:16:00,84.8,55.6,29.87,WSW,246,5.0,5.0,37,0.00,OVC,,0.00,WeatherDisplay:10.37,2013-08-21 23:16:00,
2013-08-21 16:21:00,85.3,56.8,29.87,West,271,7.0,7.0,38,0.00,OVC,,0.00,WeatherDisplay:10.37,2013-08-21 23:21:00,
2013-08-21 16:26:00,85.6,55.6,29.87,West,270,6.9,6.9,36,0.00,OVC,,0.00,WeatherDisplay:10.37,2013-08-21 23:26:00,
2013-08-21 16:31:00,85.7,55.7,29.87,West,269,10.4,10.4,36,0.00,OVC,,0.00,WeatherDisplay:10.37,2013-08-21 23:31:00,
2013-08-21 16:36:00,85.8,55.8,29.87,West,269,6.0,6.0,36,0.00,OVC,,0.00,WeatherDisplay:10.37,2013-08-21 23:36:00,
2013-08-21 16:41:00,86.0,55.9,29.86,West,281,9.2,9.2,36,0.00,OVC,,0.00,WeatherDisplay:10.37,2013-08-21 23:41:00,
2013-08-21 16:46:00,86.1,55.2,29.86,WNW,284,4.6,4.6,35,0.00,OVC,,0.00,WeatherDisplay:10.37,2013-08-21 23:46:00,
2013-08-21 16:51:00,86.2,56.1,29.86,WNW,298,6.9,6.9,36,0.00,OVC,,0.00,WeatherDisplay:10.37,2013-08-21 23:51:00,
2013-08-21 16:56:00,86.2,55.3,29.86,NW,304,6.0,6.3,35,0.00,OVC,,0.00,WeatherDisplay:10.37,2013-08-21 23:56:00,
2013-08-21 17:01:00,86.1,55.2,29.86,NW,304,4.6,4.6,35,0.00,OVC,,0.00,WeatherDisplay:10.37,2013-08-22 00:01:00,
2013-08-21 17:06:00,86.2,55.3,29.86,WNW,300,5.8,5.8,35,0.00,OVC,,0.00,WeatherDisplay:10.37,2013-08-22 00:06:00,
2013-08-21 17:11:00,86.3,55.4,29.86,West,259,10.4,10.4,35,0.00,OVC,,0.00,WeatherDisplay:10.37,2013-08-22 00:11:00,
2013-08-21 17:16:00,86.1,56.0,29.86,West,278,9.2,9.2,36,0.00,OVC,,0.00,WeatherDisplay:10.37,2013-08-22 00:16:00,
2013-08-21 17:21:00,86.1,55.2,29.86,WNW,303,5.8,5.8,35,0.00,OVC,,0.00,WeatherDisplay:10.37,2013-08-22 00:21:00,
2013-08-21 17:26:00,86.0,55.2,29.85,West,269,10.4,10.4,35,0.00,OVC,,0.00,WeatherDisplay:10.37,2013-08-22 00:26:00,
2013-08-21 17:31:00,85.8,55.0,29.86,WNW,292,10.0,10.0,35,0.00,OVC,,0.00,WeatherDisplay:10.37,2013-08-22 00:31:00,
2013-08-21 17:36:00,85.3,55.3,29.86,West,265,11.5,11.5,36,0.00,OVC,,0.00,WeatherDisplay:10.37,2013-08-22 00:36:00,
2013-08-21 17:41:00,84.8,54.9,29.86,NW,315,9.2,9.2,36,0.00,OVC,,0.00,WeatherDisplay:10.37,2013-08-22 00:41:00,
2013-08-21 17:46:00,84.5,55.4,29.86,NW,306,6.9,6.9,37,0.00,OVC,,0.00,WeatherDisplay:10.37,2013-08-22 00:46:00,
2013-08-21 17:51:00,84.1,55.0,29.86,WNW,295,12.7,12.7,37,0.00,OVC,,0.00,WeatherDisplay:10.37,2013-08-22 00:51:00,
2013-08-21 17:56:00,83.9,54.8,29.86,WNW,294,9.0,9.0,37,0.00,OVC,,0.00,WeatherDisplay:10.37,2013-08-22 00:56:00,
2013-08-21 18:01:00,83.5,55.2,29.86,WNW,303,4.6,4.6,38,0.00,OVC,,0.00,WeatherDisplay:10.37,2013-08-22 01:01:00,
2013-08-21 18:06:00,83.2,55.0,29.86,WNW,283,9.2,9.2,38,0.00,OVC,,0.00,WeatherDisplay:10.37,2013-08-22 01:06:00,
2013-08-21 18:11:00,82.9,54.7,29.86,NW,318,6.9,6.9,38,0.00,OVC,,0.00,WeatherDisplay:10.37,2013-08-22 01:11:00,
2013-08-21 18:16:00,82.7,55.2,29.86,WNW,295,2.3,2.3,39,0.00,OVC,,0.00,WeatherDisplay:10.37,2013-08-22 01:16:00,
2013-08-21 18:21:00,82.6,55.1,29.86,WNW,294,4.0,4.0,39,0.00,OVC,,0.00,WeatherDisplay:10.37,2013-08-22 01:21:00,
2013-08-21 18:26:00,82.5,55.0,29.85,WNW,288,5.0,5.0,39,0.00,OVC,,0.00,WeatherDisplay:10.37,2013-08-22 01:26:00,
2013-08-21 18:31:00,82.3,54.9,29.85,West,278,11.5,11.5,39,0.00,OVC,,0.00,WeatherDisplay:10.37,2013-08-22 01:31:00,
2013-08-21 18:36:00,82.1,54.7,29.85,WNW,296,9.0,9.0,39,0.00,OVC,,0.00,WeatherDisplay:10.37,2013-08-22 01:36:00,
2013-08-21 18:41:00,81.8,55.1,29.85,WNW,289,3.5,3.5,40,0.00,OVC,,0.00,WeatherDisplay:10.37,2013-08-22 01:41:00,
2013-08-21 18:46:00,81.6,54.9,29.85,WNW,293,3.5,3.5,40,0.00,OVC,,0.00,WeatherDisplay:10.37,2013-08-22 01:46:00,
2013-08-21 18:51:00,81.4,55.4,29.85,WNW,298,4.6,4.6,41,0.00,OVC,,0.00,WeatherDisplay:10.37,2013-08-22 01:51:00,
2013-08-21 18:56:00,81.0,55.1,29.85,WNW,298,3.5,3.5,41,0.00,OVC,,0.00,WeatherDisplay:10.37,2013-08-22 01:56:00,
2013-08-21 19:01:00,80.6,55.4,29.85,NW,306,2.3,2.3,42,0.00,OVC,,0.00,WeatherDisplay:10.37,2013-08-22 02:01:00,
2013-08-21 19:06:00,80.3,55.1,29.85,WNW,301,2.3,2.3,42,0.00,OVC,,0.00,WeatherDisplay:10.37,2013-08-22 02:06:00,
2013-08-21 19:11:00,80.0,55.5,29.85,WNW,294,2.3,2.3,43,0.00,OVC,,0.00,WeatherDisplay:10.37,2013-08-22 02:11:00,
2013-08-21 19:16:00,79.6,55.1,29.85,NW,304,4.6,4.6,43,0.00,OVC,,0.00,WeatherDisplay:10.37,2013-08-22 02:16:00,
2013-08-21 19:21:00,79.4,55.6,29.85,NW,304,1.1,0.0,44,0.00,OVC,,0.00,WeatherDisplay:10.37,2013-08-22 02:21:00,
2013-08-21 19:26:00,79.1,54.7,29.85,WNW,302,3.5,3.5,43,0.00,OVC,,0.00,WeatherDisplay:10.37,2013-08-22 02:26:00,
2013-08-21 19:31:00,78.7,55.0,29.86,WNW,283,4.0,4.0,44,0.00,OVC,,0.00,WeatherDisplay:10.37,2013-08-22 02:31:00,
2013-08-21 19:36:00,78.5,54.8,29.85,WNW,298,4.0,4.0,44,0.00,OVC,,0.00,WeatherDisplay:10.37,2013-08-22 02:36:00,
2013-08-21 19:41:00,78.1,55.0,29.85,WNW,300,3.5,3.5,45,0.00,OVC,,0.00,WeatherDisplay:10.37,2013-08-22 02:41:00,
2013-08-21 19:46:00,77.8,55.4,29.85,NW,309,0.0,0.0,46,0.00,OVC,,0.00,WeatherDisplay:10.37,2013-08-22 02:46:00,
2013-08-21 19:51:00,77.4,54.4,29.85,WNW,292,1.0,1.0,45,0.00,OVC,,0.00,WeatherDisplay:10.37,2013-08-22 02:51:00,
2013-08-21 19:56:00,77.1,54.7,29.85,WNW,292,1.1,1.1,46,0.00,OVC,,0.00,WeatherDisplay:10.37,2013-08-22 02:56:00,
2013-08-21 20:01:00,76.7,54.4,29.85,WNW,292,1.1,0.0,46,0.00,OVC,,0.00,WeatherDisplay:10.37,2013-08-22 03:01:00,
2013-08-21 20:06:00,76.3,54.6,29.85,WNW,292,0.0,0.0,47,0.00,OVC,,0.00,WeatherDisplay:10.37,2013-08-22 03:06:00,
2013-08-21 20:11:00,75.9,54.2,29.85,WNW,292,0.0,0.0,47,0.00,OVC,,0.00,WeatherDisplay:10.37,2013-08-22 03:11:00,
2013-08-21 20:16:00,75.5,54.4,29.86,WNW,292,1.1,0.0,48,0.00,OVC,,0.00,WeatherDisplay:10.37,2013-08-22 03:16:00,
2013-08-21 20:21:00,75.0,54.0,29.86,WNW,292,0.0,0.0,48,0.00,OVC,,0.00,WeatherDisplay:10.37,2013-08-22 03:21:00,
2013-08-21 20:26:00,74.7,54.3,29.86,WNW,292,1.1,0.0,49,0.00,OVC,,0.00,WeatherDisplay:10.37,2013-08-22 03:26:00,
2013-08-21 20:31:00,74.3,53.9,29.86,WNW,292,1.0,1.0,49,0.00,OVC,,0.00,WeatherDisplay:10.37,2013-08-22 03:31:00,
2013-08-21 20:36:00,74.0,53.6,29.86,WNW,292,0.0,0.0,49,0.00,OVC,,0.00,WeatherDisplay:10.37,2013-08-22 03:36:00,
2013-08-21 20:41:00,73.6,53.8,29.86,WSW,238,3.5,3.5,50,0.00,OVC,,0.00,WeatherDisplay:10.37,2013-08-22 03:41:00,
2013-08-21 20:46:00,73.2,54.0,29.86,WSW,238,0.0,0.1,51,0.00,OVC,,0.00,WeatherDisplay:10.37,2013-08-22 03:46:00,
2013-08-21 20:51:00,72.8,53.6,29.87,WNW,293,3.0,3.0,51,0.00,OVC,,0.00,WeatherDisplay:10.37,2013-08-22 03:51:00,
2013-08-21 20:56:00,72.5,53.9,29.87,WNW,293,1.1,1.1,52,0.00,OVC,,0.00,WeatherDisplay:10.37,2013-08-22 03:56:00,
2013-08-21 21:01:00,72.3,53.7,29.87,WNW,293,0.0,0.0,52,0.00,OVC,,0.00,WeatherDisplay:10.37,2013-08-22 04:01:00,
2013-08-21 21:06:00,72.0,53.4,29.87,WNW,293,1.1,1.1,52,0.00,OVC,,0.00,WeatherDisplay:10.37,2013-08-22 04:06:00,
2013-08-21 21:11:00,71.8,53.7,29.87,NNW,330,3.0,3.0,53,0.00,OVC,,0.00,WeatherDisplay:10.37,2013-08-22 04:11:00,
2013-08-21 21:16:00,71.7,53.1,29.87,NW,309,3.5,3.5,52,0.00,OVC,,0.00,WeatherDisplay:10.37,2013-08-22 04:16:00,
2013-08-21 21:21:00,71.7,53.1,29.87,NW,310,4.6,4.6,52,0.00,OVC,,0.00,WeatherDisplay:10.37,2013-08-22 04:21:00,
2013-08-21 21:26:00,71.6,53.0,29.87,WNW,286,5.8,5.8,52,0.00,OVC,,0.00,WeatherDisplay:10.37,2013-08-22 04:26:00,
2013-08-21 21:31:00,71.5,53.5,29.87,North,5,4.6,4.6,53,0.00,OVC,,0.00,WeatherDisplay:10.37,2013-08-22 04:31:00,
2013-08-21 21:36:00,71.5,52.4,29.87,WNW,300,3.5,3.5,51,0.00,OVC,,0.00,WeatherDisplay:10.37,2013-08-22 04:36:00,
2013-08-21 21:41:00,71.5,52.4,29.87,WNW,285,5.8,5.8,51,0.00,OVC,,0.00,WeatherDisplay:10.37,2013-08-22 04:41:00,
2013-08-21 21:46:00,71.7,52.6,29.87,WNW,294,6.9,6.9,51,0.00,OVC,,0.00,WeatherDisplay:10.37,2013-08-22 04:46:00,
2013-08-21 21:51:00,71.9,52.8,29.87,NW,313,8.1,8.1,51,0.00,OVC,,0.00,WeatherDisplay:10.37,2013-08-22 04:51:00,
2013-08-21 21:56:00,71.9,52.8,29.87,North,9,3.5,3.5,51,0.00,OVC,,0.00,WeatherDisplay:10.37,2013-08-22 04:56:00,
2013-08-21 22:01:00,71.7,52.6,29.86,WNW,296,6.0,6.0,51,0.00,OVC,,0.00,WeatherDisplay:10.37,2013-08-22 05:01:00,
2013-08-21 22:06:00,71.7,52.6,29.86,West,280,3.5,3.6,51,0.00,OVC,,0.00,WeatherDisplay:10.37,2013-08-22 05:06:00,
2013-08-21 22:11:00,71.6,52.5,29.86,WNW,290,5.8,5.8,51,0.00,OVC,,0.00,WeatherDisplay:10.37,2013-08-22 05:11:00,
2013-08-21 22:16:00,71.4,52.3,29.86,NW,317,5.8,5.8,51,0.00,OVC,,0.00,WeatherDisplay:10.37,2013-08-22 05:16:00,
2013-08-21 22:21:00,71.3,52.8,29.86,WNW,284,4.0,4.0,52,0.00,OVC,,0.00,WeatherDisplay:10.37,2013-08-22 05:21:00,
2013-08-21 22:26:00,71.3,52.8,29.86,NW,325,5.8,5.8,52,0.00,OVC,,0.00,WeatherDisplay:10.37,2013-08-22 05:26:00,
2013-08-21 22:31:00,71.4,52.9,29.86,NW,309,3.5,3.5,52,0.00,OVC,,0.00,WeatherDisplay:10.37,2013-08-22 05:31:00,
2013-08-21 22:36:00,71.3,52.8,29.86,NW,307,4.6,4.6,52,0.00,OVC,,0.00,WeatherDisplay:10.37,2013-08-22 05:36:00,
2013-08-21 22:41:00,71.2,52.7,29.86,NW,312,9.2,9.2,52,0.00,OVC,,0.00,WeatherDisplay:10.37,2013-08-22 05:41:00,
2013-08-21 22:46:00,71.1,52.6,29.86,WNW,301,3.5,3.5,52,0.00,OVC,,0.00,WeatherDisplay:10.37,2013-08-22 05:46:00,
2013-08-21 22:51:00,71.0,52.5,29.86,NW,326,3.5,3.5,52,0.00,OVC,,0.00,WeatherDisplay:10.37,2013-08-22 05:51:00,
2013-08-21 22:56:00,70.8,52.8,29.86,NW,321,3.5,3.5,53,0.00,OVC,,0.00,WeatherDisplay:10.37,2013-08-22 05:56:00,
2013-08-21 23:01:00,70.5,53.1,29.85,NW,325,4.6,4.6,54,0.00,OVC,,0.00,WeatherDisplay:10.37,2013-08-22 06:01:00,
2013-08-21 23:06:00,70.4,53.0,29.85,NW,312,5.8,5.8,54,0.00,OVC,,0.00,WeatherDisplay:10.37,2013-08-22 06:06:00,
2013-08-21 23:11:00,70.4,52.4,29.86,WNW,297,4.6,4.6,53,0.00,OVC,,0.00,WeatherDisplay:10.37,2013-08-22 06:11:00,
2013-08-21 23:16:00,70.3,52.4,29.85,NNW,339,3.0,3.0,53,0.00,OVC,,0.00,WeatherDisplay:10.37,2013-08-22 06:16:00,
2013-08-21 23:21:00,70.2,52.8,29.85,NW,318,3.5,3.5,54,0.00,OVC,,0.00,WeatherDisplay:10.37,2013-08-22 06:21:00,
2013-08-21 23:26:00,70.3,52.9,29.85,NW,324,4.0,4.0,54,0.00,OVC,,0.00,WeatherDisplay:10.37,2013-08-22 06:26:00,
2013-08-21 23:31:00,70.3,52.9,29.85,NW,322,3.5,3.5,54,0.00,OVC,,0.00,WeatherDisplay:10.37,2013-08-22 06:31:00,
2013-08-21 23:36:00,70.1,52.7,29.85,NW,319,5.8,5.8,54,0.00,OVC,,0.00,WeatherDisplay:10.37,2013-08-22 06:36:00,
2013-08-21 23:41:00,70.2,52.8,29.85,NW,317,5.0,5.0,54,0.00,OVC,,0.00,WeatherDisplay:10.37,2013-08-22 06:41:00,
2013-08-21 23:46:00,70.1,52.2,29.85,WNW,300,5.8,5.8,53,0.00,OVC,,0.00,WeatherDisplay:10.37,2013-08-22 06:46:00,
2013-08-21 23:51:00,69.8,52.9,29.85,WNW,295,4.6,4.6,55,0.00,OVC,,0.00,WeatherDisplay:10.37,2013-08-22 06:51:00,
2013-08-21 23:56:00,69.6,52.7,29.85,NW,304,3.5,3.5,55,0.00,OVC,,0.00,WeatherDisplay:10.37,2013-08-22 06:56:00,